Time;durP1;ratioP1;P1;durP2;ratioP2;P2;SDS_P1;SDS_P2;PMS_P1;PMS_P2;Temp;Humidity;BMP_temperature;BMP_pressure;BME280_temperature;BME280_humidity;BME280_pressure;Samples;Min_cycle;Max_cycle;Signal;HPM_P1;HPM_P2
2022/08/17 00:01:22;;;;;;;59.72;46.50;;;19.20;99.90;;;;;;7397302;19;20082;-79
2022/08/17 00:03:50;;;;;;;50.47;39.67;;;19.20;99.90;;;;;;7399235;19;20014;-79
2022/08/17 00:06:23;;;;;;;52.72;43.78;;;19.20;99.90;;;;;;7398125;19;20015;-79
2022/08/17 00:08:59;;;;;;;63.88;45.10;;;19.10;99.90;;;;;;7399201;19;20010;-79
2022/08/17 00:11:33;;;;;;;55.78;44.13;;;19.10;99.90;;;;;;7399226;19;20512;-79
2022/08/17 00:14:12;;;;;;;69.10;47.17;;;19.00;99.90;;;;;;7395441;19;20479;-78
2022/08/17 00:16:42;;;;;;;63.95;47.00;;;19.00;99.90;;;;;;7398867;19;20070;-78
2022/08/17 00:19:11;;;;;;;69.53;49.40;;;18.90;99.90;;;;;;7398520;19;20006;-79
2022/08/17 00:21:41;;;;;;;75.00;53.10;;;18.80;99.90;;;;;;7398747;19;20611;-79
2022/08/17 00:24:07;;;;;;;73.63;53.85;;;18.80;99.90;;;;;;7398603;19;20030;-79
2022/08/17 00:26:34;;;;;;;75.22;53.22;;;18.70;99.90;;;;;;7397854;19;20027;-79
2022/08/17 00:29:01;;;;;;;94.95;58.65;;;18.70;99.90;;;;;;7397018;19;20035;-79
2022/08/17 00:31:27;;;;;;;77.75;54.08;;;18.70;99.90;;;;;;7398629;19;20479;-79
2022/08/17 00:33:53;;;;;;;80.75;54.92;;;18.70;99.90;;;;;;7397452;19;20034;-79
2022/08/17 00:36:20;;;;;;;82.28;57.20;;;18.70;99.90;;;;;;7397925;19;20003;-79
2022/08/17 00:38:46;;;;;;;77.28;54.40;;;18.70;99.90;;;;;;7399907;19;20112;-79
2022/08/17 00:41:18;;;;;;;76.57;54.13;;;18.70;99.90;;;;;;7396320;19;20047;-79
2022/08/17 00:43:53;;;;;;;81.28;55.78;;;18.60;99.90;;;;;;7398032;19;20011;-79
2022/08/17 00:46:20;;;;;;;78.43;55.92;;;18.70;99.90;;;;;;7398027;19;20044;-79
2022/08/17 00:48:48;;;;;;;73.28;54.22;;;18.60;99.90;;;;;;7397154;19;20021;-79
2022/08/17 00:51:20;;;;;;;71.68;52.15;;;18.60;99.90;;;;;;7397692;19;20141;-79
2022/08/17 00:53:57;;;;;;;71.25;51.85;;;18.60;99.90;;;;;;7396574;19;20007;-79
2022/08/17 00:56:30;;;;;;;73.00;53.35;;;18.60;99.90;;;;;;7397722;19;20014;-79
2022/08/17 00:58:57;;;;;;;77.10;55.53;;;18.60;99.90;;;;;;7397397;19;20007;-79
2022/08/17 01:01:23;;;;;;;58.47;47.63;;;18.60;99.90;;;;;;7396321;19;20355;-79
2022/08/17 01:03:54;;;;;;;62.03;48.75;;;18.60;99.90;;;;;;7397096;19;20109;-79
2022/08/17 01:06:22;;;;;;;57.55;45.88;;;18.60;99.90;;;;;;7397577;19;20015;-79
2022/08/17 01:08:51;;;;;;;64.78;50.78;;;18.60;99.90;;;;;;7397361;19;20021;-80
2022/08/17 01:11:17;;;;;;;65.30;49.72;;;18.60;99.90;;;;;;7397109;19;20026;-79
2022/08/17 01:13:44;;;;;;;68.88;53.13;;;18.50;99.90;;;;;;7395658;19;20356;-79
2022/08/17 01:16:24;;;;;;;75.40;52.42;;;18.60;99.90;;;;;;7397007;19;20014;-79
2022/08/17 01:18:57;;;;;;;82.80;58.17;;;18.60;99.90;;;;;;7394637;19;20515;-79
2022/08/17 01:21:29;;;;;;;66.07;51.78;;;18.60;99.90;;;;;;7395473;19;20025;-79
2022/08/17 01:23:56;;;;;;;80.53;55.92;;;18.60;99.90;;;;;;7396355;19;20451;-79
2022/08/17 01:26:22;;;;;;;71.80;53.50;;;18.60;99.90;;;;;;7396585;19;20014;-79
2022/08/17 01:28:49;;;;;;;64.28;51.33;;;18.60;99.90;;;;;;7396602;19;20022;-79
2022/08/17 01:31:15;;;;;;;63.80;50.90;;;18.60;99.90;;;;;;7394689;19;20035;-80
2022/08/17 01:33:41;;;;;;;64.15;50.85;;;18.60;99.90;;;;;;7395518;19;20390;-79
2022/08/17 01:36:08;;;;;;;72.63;53.13;;;18.50;99.90;;;;;;7394263;19;20372;-79
2022/08/17 01:38:36;;;;;;;66.20;50.47;;;18.50;99.90;;;;;;7397877;19;20444;-80
2022/08/17 01:41:06;;;;;;;63.72;50.50;;;18.50;99.90;;;;;;7394195;19;20040;-79
2022/08/17 01:43:54;;;;;;;67.68;53.85;;;18.50;99.90;;;;;;7396038;19;20015;-79
2022/08/17 01:46:26;;;;;;;62.28;49.90;;;18.40;99.90;;;;;;7393698;19;20034;-79
2022/08/17 01:48:53;;;;;;;64.70;52.33;;;18.40;99.90;;;;;;7395073;19;20021;-79
2022/08/17 01:51:20;;;;;;;64.60;49.85;;;18.40;99.90;;;;;;7395775;19;20018;-80
2022/08/17 01:53:54;;;;;;;62.95;49.50;;;18.40;99.90;;;;;;7392996;19;20006;-80
2022/08/17 01:56:23;;;;;;;68.75;52.85;;;18.30;99.90;;;;;;7395706;19;20133;-79
2022/08/17 01:58:49;;;;;;;68.68;52.78;;;18.30;99.90;;;;;;7393668;19;20035;-79
2022/08/17 02:01:17;;;;;;;70.53;52.67;;;18.30;99.90;;;;;;7393630;19;20480;-79
2022/08/17 02:03:43;;;;;;;68.15;52.60;;;18.30;99.90;;;;;;7394090;19;20021;-80
2022/08/17 02:06:10;;;;;;;67.85;53.38;;;18.20;99.90;;;;;;7393926;19;20392;-80
2022/08/17 02:08:35;;;;;;;77.63;57.20;;;18.30;99.90;;;;;;7394730;19;20034;-80
2022/08/17 02:11:06;;;;;;;70.00;52.28;;;18.20;99.90;;;;;;7393002;19;20372;-80
2022/08/17 02:13:33;;;;;;;82.82;60.65;;;18.20;99.90;;;;;;7393488;19;20022;-80
2022/08/17 02:15:59;;;;;;;66.72;51.53;;;18.20;99.90;;;;;;7394365;19;20025;-80
2022/08/17 02:18:26;;;;;;;68.65;51.65;;;18.10;99.90;;;;;;7395023;19;20003;-80
2022/08/17 02:20:53;;;;;;;80.13;57.97;;;18.20;99.90;;;;;;7394921;19;20007;-80
2022/08/17 02:23:22;;;;;;;77.68;54.95;;;18.10;99.90;;;;;;7393638;19;20010;-80
2022/08/17 02:25:48;;;;;;;66.18;51.75;;;18.10;99.90;;;;;;7394314;19;20030;-80
2022/08/17 02:28:15;;;;;;;79.00;56.28;;;18.10;99.90;;;;;;7394294;19;20851;-80
2022/08/17 02:30:43;;;;;;;70.78;53.63;;;18.10;99.90;;;;;;7392867;19;20011;-80
2022/08/17 02:33:10;;;;;;;70.63;54.05;;;18.10;99.90;;;;;;7394883;19;20009;-80
2022/08/17 02:35:37;;;;;;;94.15;60.47;;;18.10;99.90;;;;;;7394363;19;20353;-80
2022/08/17 02:38:04;;;;;;;71.13;55.40;;;18.10;99.90;;;;;;7395093;19;20041;-80
2022/08/17 02:40:31;;;;;;;66.15;51.47;;;18.00;99.90;;;;;;7393726;19;20011;-80
2022/08/17 02:42:58;;;;;;;69.88;52.45;;;18.00;99.90;;;;;;7394118;19;20336;-80
2022/08/17 02:45:24;;;;;;;78.25;56.42;;;18.00;99.90;;;;;;7392006;19;20017;-80
2022/08/17 02:47:51;;;;;;;74.93;53.33;;;17.90;99.90;;;;;;7394324;19;20025;-80
2022/08/17 02:50:19;;;;;;;78.35;55.42;;;17.90;99.90;;;;;;7393588;19;20006;-80
2022/08/17 02:52:46;;;;;;;67.10;51.00;;;17.90;99.90;;;;;;7394001;19;20014;-80
2022/08/17 02:55:25;;;;;;;55.38;47.83;;;17.80;99.90;;;;;;7391998;19;20742;-80
2022/08/17 02:57:51;;;;;;;61.78;47.25;;;17.70;99.90;;;;;;7392400;19;20010;-80
2022/08/17 03:00:41;;;;;;;60.45;49.05;;;17.70;99.90;;;;;;7392329;19;20011;-80
2022/08/17 03:03:09;;;;;;;49.60;43.38;;;17.60;99.90;;;;;;7393415;19;20356;-80
2022/08/17 03:05:37;;;;;;;72.30;53.10;;;17.50;99.90;;;;;;7393145;19;20460;-80
2022/08/17 03:08:05;;;;;;;68.15;52.00;;;17.40;99.90;;;;;;7393003;19;20476;-80
2022/08/17 03:10:31;;;;;;;63.72;52.50;;;17.40;99.90;;;;;;7393073;19;20490;-80
2022/08/17 03:12:57;;;;;;;63.55;51.58;;;17.40;99.90;;;;;;7392753;19;20022;-80
2022/08/17 03:15:25;;;;;;;54.33;47.80;;;17.40;99.90;;;;;;7391433;19;20018;-80
2022/08/17 03:17:52;;;;;;;65.90;52.22;;;17.40;99.90;;;;;;7392891;19;20007;-80
2022/08/17 03:20:19;;;;;;;70.28;50.58;;;17.40;99.90;;;;;;7390596;19;20459;-80
2022/08/17 03:22:50;;;;;;;193.82;56.00;;;17.40;99.90;;;;;;7393197;19;20511;-80
2022/08/17 03:25:20;;;;;;;66.25;50.05;;;17.30;99.90;;;;;;7393038;19;20486;-80
2022/08/17 03:27:46;;;;;;;109.93;58.35;;;17.30;99.90;;;;;;7392745;19;20014;-80
2022/08/17 03:30:12;;;;;;;88.03;56.88;;;17.30;99.90;;;;;;7390968;19;20467;-80
2022/08/17 03:32:45;;;;;;;99.13;57.50;;;17.30;99.90;;;;;;7392579;19;20011;-80
2022/08/17 03:35:14;;;;;;;77.03;52.23;;;17.20;99.90;;;;;;7392662;19;20034;-80
2022/08/17 03:37:40;;;;;;;78.68;52.95;;;17.20;99.90;;;;;;7399149;19;20274;-79
2022/08/17 03:40:08;;;;;;;99.78;57.15;;;17.20;99.90;;;;;;7400432;19;20033;-80
2022/08/17 03:42:37;;;;;;;59.53;49.28;;;17.20;99.90;;;;;;7400115;19;20006;-80
2022/08/17 03:45:05;;;;;;;63.22;49.83;;;17.20;99.90;;;;;;7400158;19;20017;-80
2022/08/17 03:58:36;;;;;;;380.70;81.45;;;17.20;99.90;;;;;;7399334;19;20007;-80
2022/08/17 04:01:03;;;;;;;271.52;71.95;;;17.20;99.90;;;;;;7399728;19;20010;-80
2022/08/17 04:03:31;;;;;;;95.50;64.25;;;17.20;99.90;;;;;;7399414;19;20483;-80
2022/08/17 04:05:58;;;;;;;73.95;55.55;;;17.20;99.90;;;;;;7397339;19;20011;-80
2022/08/17 04:08:24;;;;;;;72.97;53.38;;;17.20;99.90;;;;;;7399041;19;20339;-80
2022/08/17 04:10:50;;;;;;;76.47;57.88;;;17.30;99.90;;;;;;7399052;19;20010;-80
2022/08/17 04:13:16;;;;;;;74.40;55.53;;;17.30;99.90;;;;;;7397754;19;20018;-80
2022/08/17 04:15:42;;;;;;;188.63;64.97;;;17.30;99.90;;;;;;7399472;19;20011;-80
2022/08/17 04:18:08;;;;;;;89.43;58.92;;;17.40;99.90;;;;;;7397111;19;20019;-80
2022/08/17 04:20:34;;;;;;;113.22;58.47;;;17.40;99.90;;;;;;7399056;19;20106;-80
2022/08/17 04:23:08;;;;;;;100.93;55.50;;;17.40;99.90;;;;;;7398285;19;20007;-80
2022/08/17 04:25:35;;;;;;;470.60;74.57;;;17.40;99.90;;;;;;7398767;19;20010;-80
2022/08/17 04:28:02;;;;;;;85.30;56.10;;;17.40;99.90;;;;;;7398664;19;20010;-80
2022/08/17 04:30:31;;;;;;;96.45;53.67;;;17.40;99.90;;;;;;7398528;19;20013;-80
2022/08/17 04:33:02;;;;;;;72.22;50.65;;;17.40;99.90;;;;;;7396583;19;20352;-80
2022/08/17 04:35:31;;;;;;;109.78;51.92;;;17.40;99.90;;;;;;7395325;19;20034;-80
2022/08/17 04:37:57;;;;;;;80.35;51.33;;;17.40;99.90;;;;;;7397831;19;20061;-80
2022/08/17 04:43:12;;;;;;;219.43;59.75;;;17.40;99.90;;;;;;7398316;19;20022;-79
2022/08/17 04:45:45;;;;;;;145.82;60.63;;;17.40;99.90;;;;;;7395180;19;20087;-79
2022/08/17 04:48:11;;;;;;;68.22;51.05;;;17.40;99.90;;;;;;7396684;19;20018;-79
2022/08/17 04:50:42;;;;;;;66.35;51.10;;;17.40;99.90;;;;;;7397400;19;20490;-79
2022/08/17 04:53:09;;;;;;;78.45;53.15;;;17.40;99.90;;;;;;7397495;19;20015;-79
2022/08/17 04:55:35;;;;;;;70.35;51.40;;;17.40;99.90;;;;;;7397303;19;20021;-79
2022/08/17 04:58:01;;;;;;;60.08;47.58;;;17.50;99.90;;;;;;7397432;19;20011;-79
2022/08/17 05:00:27;;;;;;;57.40;46.42;;;17.40;99.90;;;;;;7397473;19;20088;-79
2022/08/17 05:02:54;;;;;;;57.10;46.40;;;17.50;99.90;;;;;;7396022;19;20027;-79
2022/08/17 05:05:44;;;;;;;64.50;46.75;;;17.50;99.90;;;;;;7397262;19;20010;-79
2022/08/17 05:08:09;;;;;;;57.65;44.75;;;17.60;99.90;;;;;;7397051;19;20451;-79
2022/08/17 05:10:37;;;;;;;106.85;51.10;;;17.60;99.90;;;;;;7396803;19;20010;-79
2022/08/17 05:13:10;;;;;;;78.70;50.22;;;17.60;99.90;;;;;;7396103;19;20016;-79
2022/08/17 05:15:38;;;;;;;77.78;49.97;;;17.60;99.90;;;;;;7397412;19;20026;-79
2022/08/17 05:18:06;;;;;;;98.60;50.83;;;17.60;99.90;;;;;;7395463;19;20006;-79
2022/08/17 05:20:39;;;;;;;106.38;50.72;;;17.60;99.90;;;;;;7396719;19;20042;-79
2022/08/17 05:23:07;;;;;;;97.07;51.20;;;17.60;99.90;;;;;;7396886;19;20031;-79
2022/08/17 05:25:46;;;;;;;93.88;51.03;;;17.60;99.90;;;;;;7395355;19;20010;-79
2022/08/17 05:28:13;;;;;;;74.65;47.83;;;17.60;99.90;;;;;;7396363;19;20498;-79
2022/08/17 05:30:41;;;;;;;80.72;46.75;;;17.70;99.90;;;;;;7396896;19;20021;-79
2022/08/17 05:33:18;;;;;;;111.22;50.28;;;17.70;99.90;;;;;;7395949;19;20019;-79
2022/08/17 05:35:47;;;;;;;78.43;45.05;;;17.70;99.90;;;;;;7395789;19;20010;-79
2022/08/17 05:38:15;;;;;;;81.55;43.97;;;17.70;99.90;;;;;;7397723;19;20115;-79
2022/08/17 05:40:41;;;;;;;88.93;44.33;;;17.70;99.90;;;;;;7395857;19;20376;-79
2022/08/17 05:43:24;;;;;;;96.03;42.42;;;17.80;99.90;;;;;;7395877;19;20070;-79
2022/08/17 05:46:09;;;;;;;89.45;43.25;;;17.80;99.90;;;;;;7396229;19;20007;-79
2022/08/17 05:48:56;;;;;;;98.75;43.38;;;17.80;99.90;;;;;;7395448;19;20018;-79
2022/08/17 05:51:54;;;;;;;92.70;43.75;;;17.80;99.90;;;;;;7395792;19;20019;-79
2022/08/17 05:54:44;;;;;;;86.05;43.25;;;17.90;99.90;;;;;;7394238;19;20015;-79
2022/08/17 05:57:36;;;;;;;106.18;46.40;;;17.80;99.90;;;;;;7393003;19;20022;-79
2022/08/17 06:00:09;;;;;;;96.50;46.47;;;17.80;99.90;;;;;;7395306;19;20047;-80
2022/08/17 06:03:07;;;;;;;111.18;48.10;;;17.90;99.90;;;;;;7393908;19;20006;-80
2022/08/17 06:05:56;;;;;;;94.18;46.17;;;17.80;99.90;;;;;;7394263;19;20011;-80
2022/08/17 06:08:46;;;;;;;110.03;47.38;;;17.80;99.90;;;;;;7394902;19;20034;-80
2022/08/17 06:11:44;;;;;;;88.28;46.45;;;17.80;99.90;;;;;;7394863;19;20014;-80
2022/08/17 06:14:28;;;;;;;93.93;45.25;;;17.80;99.90;;;;;;7392069;19;20015;-80
2022/08/17 06:17:01;;;;;;;85.80;45.47;;;17.90;99.90;;;;;;7394782;19;20051;-78
2022/08/17 06:19:40;;;;;;;88.07;46.40;;;17.90;99.90;;;;;;7392772;19;20011;-80
2022/08/17 06:22:08;;;;;;;76.57;45.13;;;17.90;99.90;;;;;;7394475;19;20345;-80
2022/08/17 06:24:40;;;;;;;76.75;44.13;;;18.00;99.90;;;;;;7394496;19;20010;-80
2022/08/17 06:27:26;;;;;;;79.63;44.08;;;18.00;99.90;;;;;;7392689;19;20006;-80
2022/08/17 06:30:13;;;;;;;101.88;46.67;;;18.00;99.90;;;;;;7394118;19;20026;-80
2022/08/17 06:32:44;;;;;;;81.28;45.03;;;18.00;99.90;;;;;;7394565;19;20356;-80
2022/08/17 06:35:14;;;;;;;77.65;43.42;;;18.00;99.90;;;;;;7392566;19;20401;-80
2022/08/17 06:38:13;;;;;;;80.18;44.33;;;18.00;99.90;;;;;;7394985;19;20006;-80
2022/08/17 06:40:58;;;;;;;82.18;44.33;;;18.00;99.90;;;;;;7392809;19;20007;-80
2022/08/17 06:43:37;;;;;;;110.70;49.53;;;18.00;99.90;;;;;;7393929;19;20014;-79
2022/08/17 06:46:12;;;;;;;144.43;52.95;;;18.00;99.90;;;;;;7392587;19;20011;-78
2022/08/17 06:48:55;;;;;;;235.18;62.13;;;18.00;99.90;;;;;;7391483;19;20044;-79
2022/08/17 06:51:36;;;;;;;163.82;58.05;;;18.00;99.90;;;;;;7393890;19;20022;-79
2022/08/17 06:54:18;;;;;;;287.23;70.03;;;17.90;99.90;;;;;;7393134;19;20018;-80
2022/08/17 06:56:46;;;;;;;192.60;65.97;;;17.90;99.90;;;;;;7393897;19;20015;-79
2022/08/17 06:59:18;;;;;;;256.95;72.15;;;17.90;99.90;;;;;;7393848;19;20066;-80
2022/08/17 07:01:47;;;;;;;241.75;73.40;;;17.90;99.90;;;;;;7393666;19;20527;-80
2022/08/17 07:04:18;;;;;;;285.77;77.72;;;18.10;99.90;;;;;;7393691;19;20475;-80
2022/08/17 07:09:58;;;;;;;216.85;77.53;;;18.00;99.90;;;;;;7392993;19;20026;-80
2022/08/17 07:12:32;;;;;;;282.05;81.75;;;18.10;99.90;;;;;;7391683;19;20011;-80
2022/08/17 07:15:13;;;;;;;277.58;78.47;;;18.10;99.90;;;;;;7391300;19;20018;-80
2022/08/17 07:17:41;;;;;;;229.35;68.68;;;18.20;99.90;;;;;;7391359;19;20017;-80
2022/08/17 07:20:10;;;;;;;290.88;77.30;;;18.20;99.90;;;;;;7391002;19;20037;-80
2022/08/17 07:22:45;;;;;;;252.52;73.15;;;18.20;99.90;;;;;;7393132;19;20007;-80
2022/08/17 07:25:17;;;;;;;212.18;74.35;;;18.20;99.90;;;;;;7393128;19;20011;-80
2022/08/17 07:27:49;;;;;;;211.07;71.40;;;18.20;99.90;;;;;;7393122;19;20018;-80
2022/08/17 07:30:24;;;;;;;197.27;78.03;;;18.20;99.90;;;;;;7392513;19;20074;-80
2022/08/17 07:32:56;;;;;;;163.80;70.80;;;18.20;99.90;;;;;;7392790;19;20480;-80
2022/08/17 07:35:29;;;;;;;152.00;66.18;;;18.20;99.90;;;;;;7389275;19;20011;-80
2022/08/17 07:38:15;;;;;;;145.80;65.28;;;18.30;99.90;;;;;;7394024;19;20021;-80
2022/08/17 07:41:04;;;;;;;156.00;65.10;;;18.20;99.90;;;;;;7392326;19;20027;-81
2022/08/17 07:43:39;;;;;;;169.20;66.15;;;18.30;99.90;;;;;;7392372;19;20007;-81
2022/08/17 07:49:38;;;;;;;208.57;76.07;;;18.70;99.90;;;;;;7388049;19;20019;-80
2022/08/17 07:52:07;;;;;;;207.55;80.93;;;18.90;99.90;;;;;;7392462;19;20015;-80
2022/08/17 07:54:41;;;;;;;194.95;76.00;;;19.00;99.90;;;;;;7390925;19;20396;-80
2022/08/17 07:57:12;;;;;;;111.97;55.35;;;19.20;99.90;;;;;;7390243;19;20064;-80
2022/08/17 07:59:41;;;;;;;104.50;52.55;;;19.10;99.90;;;;;;7391822;19;20082;-80
2022/08/17 08:02:13;;;;;;;94.45;49.50;;;19.20;99.90;;;;;;7390448;19;20026;-81
2022/08/17 08:04:49;;;;;;;101.13;51.97;;;19.20;99.90;;;;;;7392116;19;20010;-80
2022/08/17 08:07:15;;;;;;;112.20;55.55;;;19.30;99.90;;;;;;7392049;19;20014;-79
2022/08/17 08:09:42;;;;;;;114.03;57.00;;;19.40;99.90;;;;;;7391417;19;20014;-79
2022/08/17 08:12:37;;;;;;;143.23;67.10;;;19.40;99.90;;;;;;7391350;19;20025;-79
2022/08/17 08:15:09;;;;;;;131.05;62.47;;;19.60;99.90;;;;;;7389260;19;20042;-79
2022/08/17 08:17:51;;;;;;;118.33;61.37;;;19.70;99.90;;;;;;7391700;19;20015;-79
2022/08/17 08:20:53;;;;;;;98.82;56.95;;;19.70;99.90;;;;;;7390916;19;20014;-79
2022/08/17 08:23:24;;;;;;;113.18;63.08;;;19.70;99.90;;;;;;7396490;19;20381;-79
2022/08/17 08:26:02;;;;;;;110.65;61.20;;;19.70;99.90;;;;;;7398523;19;20508;-79
2022/08/17 08:28:51;;;;;;;127.32;67.10;;;19.70;99.90;;;;;;7398554;19;20370;-79
2022/08/17 08:31:17;;;;;;;146.20;69.38;;;19.70;99.90;;;;;;7398029;19;20003;-79
2022/08/17 08:34:17;;;;;;;105.15;61.05;;;19.80;99.90;;;;;;7396181;19;20017;-79
2022/08/17 08:37:16;;;;;;;94.93;57.08;;;19.70;99.90;;;;;;7398011;19;20405;-79
2022/08/17 08:40:07;;;;;;;114.07;63.50;;;19.70;99.90;;;;;;7396949;19;20070;-79
2022/08/17 08:42:52;;;;;;;108.38;64.80;;;19.70;99.90;;;;;;7396324;19;20044;-79
2022/08/17 08:45:37;;;;;;;104.15;62.17;;;19.80;99.90;;;;;;7397595;19;20070;-79
2022/08/17 08:48:51;;;;;;;122.85;70.55;;;19.90;99.90;;;;;;7397729;19;20007;-80
2022/08/17 08:51:42;;;;;;;104.25;64.15;;;20.00;99.90;;;;;;7396971;19;20027;-80
2022/08/17 08:54:33;;;;;;;107.70;64.28;;;20.20;99.90;;;;;;7396582;19;20021;-79
2022/08/17 08:57:12;;;;;;;100.32;61.63;;;20.30;99.90;;;;;;7397618;19;20029;-79
2022/08/17 08:59:57;;;;;;;88.35;56.90;;;20.50;99.90;;;;;;7397401;19;20018;-80
2022/08/17 09:02:43;;;;;;;86.60;56.38;;;20.60;99.90;;;;;;7396107;19;20014;-80
2022/08/17 09:05:38;;;;;;;69.47;48.20;;;20.60;99.90;;;;;;7397481;19;20021;-79
2022/08/17 09:08:22;;;;;;;82.25;55.03;;;20.60;99.90;;;;;;7397595;19;20415;-80
2022/08/17 09:11:02;;;;;;;82.82;55.45;;;20.70;99.90;;;;;;7395478;19;20019;-80
2022/08/17 09:13:45;;;;;;;66.32;48.58;;;20.80;99.90;;;;;;7395588;19;20132;-79
2022/08/17 09:16:36;;;;;;;66.93;48.13;;;20.80;99.90;;;;;;7397168;19;20017;-80
2022/08/17 09:19:29;;;;;;;69.55;47.35;;;20.80;99.90;;;;;;7395615;19;20022;-80
2022/08/17 09:22:25;;;;;;;68.22;48.75;;;20.80;99.90;;;;;;7396017;19;20069;-80
2022/08/17 09:25:02;;;;;;;73.88;51.78;;;20.90;99.90;;;;;;7395339;19;20044;-80
2022/08/17 09:27:46;;;;;;;75.18;52.78;;;20.90;99.90;;;;;;7395215;19;20045;-80
2022/08/17 09:30:13;;;;;;;77.45;51.55;;;21.00;99.90;;;;;;7397009;19;20003;-79
2022/08/17 09:32:43;;;;;;;75.63;53.22;;;21.00;99.90;;;;;;7396614;19;20026;-80
2022/08/17 09:35:33;;;;;;;82.57;54.75;;;21.00;99.90;;;;;;7394339;19;20367;-80
2022/08/17 09:38:21;;;;;;;87.93;57.63;;;21.00;99.90;;;;;;7398266;19;20073;-80
2022/08/17 09:41:00;;;;;;;86.38;58.08;;;21.00;99.90;;;;;;7396412;19;20018;-79
2022/08/17 09:43:49;;;;;;;93.13;62.55;;;21.00;99.90;;;;;;7394811;19;20014;-79
2022/08/17 09:46:34;;;;;;;94.70;61.53;;;21.00;99.90;;;;;;7396114;19;20006;-79
2022/08/17 09:49:13;;;;;;;82.95;53.33;;;21.10;99.90;;;;;;7393895;19;20014;-80
2022/08/17 09:51:47;;;;;;;86.30;58.13;;;21.10;99.90;;;;;;7396410;19;20010;-79
2022/08/17 09:54:27;;;;;;;90.95;59.00;;;21.20;99.90;;;;;;7394574;19;20011;-80
2022/08/17 09:57:12;;;;;;;88.60;60.70;;;21.20;99.90;;;;;;7395917;19;20018;-80
2022/08/17 10:00:27;;;;;;;94.05;61.33;;;21.30;99.90;;;;;;7393684;19;20014;-80
2022/08/17 10:03:21;;;;;;;97.22;61.00;;;21.30;99.90;;;;;;7395487;19;20029;-80
2022/08/17 10:06:14;;;;;;;92.53;63.92;;;21.30;99.90;;;;;;7395532;19;20183;-79
2022/08/17 10:08:52;;;;;;;90.97;59.75;;;21.40;99.90;;;;;;7392844;19;20026;-79
2022/08/17 10:15:06;;;;;;;86.57;61.20;;;21.70;99.90;;;;;;7393023;19;20022;-80
2022/08/17 10:18:20;;;;;;;82.07;60.65;;;21.80;99.90;;;;;;7392858;19;20010;-80
2022/08/17 10:26:59;;;;;;;81.53;57.38;;;21.70;99.90;;;;;;7397213;19;20018;-78
2022/08/17 10:29:32;;;;;;;80.85;57.95;;;22.00;99.90;;;;;;7396360;19;20029;-78
2022/08/17 10:32:03;;;;;;;;;;;22.20;99.90;;;;;;7394825;19;20022;-79
2022/08/17 10:34:44;;;;;;;86.53;62.25;;;22.20;99.90;;;;;;7394249;19;19930;-79
2022/08/17 10:37:34;;;;;;;78.35;59.08;;;22.30;99.90;;;;;;7393330;19;20015;-79
2022/08/17 10:40:23;;;;;;;73.70;55.63;;;22.40;99.90;;;;;;7393516;19;20018;-85
2022/08/17 10:43:28;;;;;;;74.97;56.95;;;22.50;99.90;;;;;;7395118;19;20037;-81
2022/08/17 10:46:16;;;;;;;76.05;57.63;;;22.60;99.90;;;;;;7397781;19;20018;-82
2022/08/17 10:48:42;;;;;;;73.50;55.90;;;22.60;99.90;;;;;;7396428;19;20073;-79
2022/08/17 10:51:36;;;;;;;71.63;55.65;;;22.60;99.90;;;;;;7397871;19;20038;-79
2022/08/17 10:54:24;;;;;;;74.05;55.90;;;22.60;99.90;;;;;;7391599;19;20010;-79
2022/08/17 10:56:55;;;;;;;76.47;57.58;;;22.70;99.90;;;;;;7393365;19;20027;-79
2022/08/17 10:59:36;;;;;;;74.22;54.88;;;22.90;99.90;;;;;;7393122;19;20090;-79
2022/08/17 11:02:26;;;;;;;71.20;55.05;;;22.90;99.90;;;;;;7391117;19;20011;-79
2022/08/17 11:05:23;;;;;;;69.95;53.83;;;23.00;99.90;;;;;;7391334;19;20014;-78
2022/08/17 11:08:22;;;;;;;69.38;53.03;;;23.00;99.90;;;;;;7393413;19;20015;-79
2022/08/17 11:11:13;;;;;;;66.35;52.75;;;23.00;99.90;;;;;;7392101;19;20037;-80
2022/08/17 11:13:47;;;;;;;71.05;52.35;;;23.00;99.90;;;;;;7391907;19;20025;-82
2022/08/17 11:16:31;;;;;;;65.80;52.58;;;23.00;99.90;;;;;;7392931;19;20025;-82
2022/08/17 11:19:32;;;;;;;64.20;50.75;;;23.10;99.90;;;;;;7391583;19;20027;-81
2022/08/17 11:22:28;;;;;;;67.47;54.55;;;23.00;99.90;;;;;;7390158;19;20491;-80
2022/08/17 11:24:55;;;;;;;68.03;53.53;;;22.80;99.90;;;;;;7392378;19;20010;-79
2022/08/17 11:27:29;;;;;;;68.07;54.15;;;22.70;99.90;;;;;;7390439;19;20018;-79
2022/08/17 11:29:59;;;;;;;65.82;52.17;;;22.70;99.90;;;;;;7392506;19;20078;-80
2022/08/17 11:32:37;;;;;;;64.82;51.63;;;22.60;99.90;;;;;;7391402;19;20026;-80
2022/08/17 11:35:19;;;;;;;62.72;48.75;;;22.60;99.90;;;;;;7392097;19;20029;-80
2022/08/17 11:38:07;;;;;;;63.53;48.70;;;22.60;99.90;;;;;;7392522;19;20566;-79
2022/08/17 11:41:09;;;;;;;58.00;48.92;;;22.60;99.90;;;;;;7392588;19;20007;-80
2022/08/17 11:44:03;;;;;;;57.30;48.33;;;22.70;99.90;;;;;;7392692;19;20033;-80
2022/08/17 11:52:47;;;;;;;51.00;42.92;;;23.00;99.90;;;;;;7392365;19;20010;-80
2022/08/17 11:55:31;;;;;;;47.45;41.05;;;23.10;99.90;;;;;;7390605;19;20048;-79
2022/08/17 11:58:28;;;;;;;45.45;39.95;;;23.20;99.90;;;;;;7397359;19;20017;-80
2022/08/17 12:01:00;;;;;;;47.13;40.92;;;23.20;99.90;;;;;;7399431;19;20033;-80
2022/08/17 12:03:32;;;;;;;45.15;40.15;;;23.20;99.90;;;;;;7399062;19;20377;-80
2022/08/17 12:06:16;;;;;;;44.90;40.08;;;23.20;99.90;;;;;;7398868;19;20046;-79
2022/08/17 12:08:50;;;;;;;47.13;40.58;;;23.20;99.90;;;;;;7399344;19;20028;-80
2022/08/17 12:11:23;;;;;;;42.50;37.90;;;23.20;99.90;;;;;;7399019;19;20011;-80
2022/08/17 12:13:55;;;;;;;41.97;37.35;;;23.20;99.90;;;;;;7395323;19;20025;-80
2022/08/17 12:16:21;;;;;;;40.85;36.45;;;23.20;99.90;;;;;;7398935;19;20414;-80
2022/08/17 12:18:51;;;;;;;40.78;34.17;;;23.20;99.90;;;;;;7398001;19;20023;-80
2022/08/17 12:21:24;;;;;;;37.70;33.65;;;23.30;99.90;;;;;;7399201;19;20147;-78
2022/08/17 12:24:09;;;;;;;39.17;34.67;;;23.20;99.90;;;;;;7398332;19;20007;-80
2022/08/17 12:26:36;;;;;;;37.45;32.20;;;23.20;99.90;;;;;;7398365;19;20074;-79
2022/08/17 12:29:06;;;;;;;35.60;31.90;;;23.20;99.90;;;;;;7395740;19;20025;-79
2022/08/17 12:31:43;;;;;;;36.33;32.25;;;23.20;99.90;;;;;;7398492;19;20014;-80
2022/08/17 12:34:32;;;;;;;36.95;32.75;;;23.20;99.90;;;;;;7395745;19;20020;-79
2022/08/17 12:37:03;;;;;;;36.00;32.17;;;23.20;99.90;;;;;;7396458;19;20027;-80
2022/08/17 12:39:29;;;;;;;35.13;31.42;;;23.20;99.90;;;;;;7398537;19;20471;-79
2022/08/17 12:41:59;;;;;;;38.20;33.97;;;23.20;99.90;;;;;;7396478;19;20014;-80
2022/08/17 12:44:31;;;;;;;40.65;35.55;;;23.20;99.90;;;;;;7398420;19;20054;-79
2022/08/17 12:47:03;;;;;;;35.43;31.57;;;23.20;99.90;;;;;;7397756;19;20018;-80
2022/08/17 12:49:41;;;;;;;44.10;37.05;;;23.20;99.90;;;;;;7397547;19;20483;-79
2022/08/17 12:52:23;;;;;;;39.88;33.65;;;23.20;99.90;;;;;;7397672;19;20014;-79
2022/08/17 12:55:10;;;;;;;42.08;36.45;;;23.20;99.90;;;;;;7394499;19;20364;-79
2022/08/17 12:57:42;;;;;;;40.13;35.85;;;23.20;99.90;;;;;;7395739;19;20007;-80
2022/08/17 13:00:36;;;;;;;41.03;36.55;;;23.30;99.90;;;;;;7397388;19;20035;-79
2022/08/17 13:03:14;;;;;;;41.92;37.33;;;23.20;99.90;;;;;;7395387;19;20010;-80
2022/08/17 13:05:56;;;;;;;41.22;36.78;;;23.20;99.90;;;;;;7397301;19;20031;-80
2022/08/17 13:08:30;;;;;;;42.65;37.00;;;23.20;99.90;;;;;;7396383;19;20081;-79
2022/08/17 13:11:00;;;;;;;39.55;35.33;;;23.10;99.90;;;;;;7397350;19;20025;-80
2022/08/17 13:13:32;;;;;;;37.03;33.00;;;23.00;99.90;;;;;;7394697;19;20010;-80
2022/08/17 13:16:00;;;;;;;36.58;32.65;;;23.00;99.90;;;;;;7396669;19;20015;-81
2022/08/17 13:18:47;;;;;;;39.08;34.75;;;23.00;99.90;;;;;;7396395;19;20011;-80
2022/08/17 13:21:21;;;;;;;35.38;31.98;;;23.10;99.90;;;;;;7396742;19;20018;-80
2022/08/17 13:24:06;;;;;;;37.70;32.17;;;23.20;99.90;;;;;;7396404;19;20025;-80
2022/08/17 13:26:41;;;;;;;37.95;33.83;;;23.10;99.90;;;;;;7396757;19;20118;-80
2022/08/17 13:29:24;;;;;;;36.70;32.90;;;23.10;99.90;;;;;;7392472;19;20017;-79
2022/08/17 13:31:57;;;;;;;31.35;28.10;;;23.10;99.90;;;;;;7395816;19;20615;-80
2022/08/17 13:34:22;;;;;;;35.03;31.33;;;23.10;99.90;;;;;;7395920;19;20019;-80
2022/08/17 13:36:51;;;;;;;37.80;33.83;;;23.10;99.90;;;;;;7395860;19;20297;-80
2022/08/17 13:39:23;;;;;;;37.83;33.90;;;23.10;99.90;;;;;;7395725;19;20014;-80
2022/08/17 13:41:52;;;;;;;39.35;34.72;;;23.20;99.90;;;;;;7394304;19;20006;-81
2022/08/17 13:44:38;;;;;;;38.40;34.53;;;23.20;99.90;;;;;;7395774;19;20031;-80